Time;durP1;ratioP1;P1;durP2;ratioP2;P2;SDS_P1;SDS_P2;PMS_P1;PMS_P2;Temp;Humidity;BMP_temperature;BMP_pressure;BME280_temperature;BME280_humidity;BME280_pressure;Samples;Min_cycle;Max_cycle;Signal;HPM_P1;HPM_P2
2022/05/25 00:08:38;;;;;;;1.30;0.55;;;11.90;99.90;;;;;;20662903;28;20049;-40
2022/05/25 00:19:58;;;;;;;1.23;0.70;;;11.80;99.90;;;;;;20687893;28;20049;-40
2022/05/25 00:29:01;;;;;;;2.08;0.65;;;11.90;99.90;;;;;;20696820;28;20037;-40
2022/05/25 00:39:04;;;;;;;1.02;0.40;;;11.80;99.90;;;;;;20694705;28;20057;-40
2022/05/25 00:49:21;;;;;;;2.05;0.82;;;11.70;99.90;;;;;;20693690;28;20053;-40
2022/05/25 00:59:31;;;;;;;1.57;0.50;;;11.80;99.90;;;;;;20706168;28;20538;-40
2022/05/25 01:10:08;;;;;;;1.45;0.77;;;11.70;99.90;;;;;;20701918;28;20046;-39
2022/05/25 01:20:21;;;;;;;2.85;1.55;;;11.60;99.90;;;;;;20693953;28;21384;-40
2022/05/25 01:30:28;;;;;;;3.33;1.27;;;11.60;99.90;;;;;;20698299;28;20652;-40
2022/05/25 01:40:47;;;;;;;2.10;0.70;;;11.60;99.90;;;;;;20705870;28;20064;-40
2022/05/25 01:50:56;;;;;;;3.13;1.67;;;11.50;99.90;;;;;;20693910;28;20064;-40
2022/05/25 02:00:59;;;;;;;2.53;1.23;;;11.40;99.90;;;;;;20710160;28;20061;-40
2022/05/25 02:11:29;;;;;;;5.28;1.70;;;11.40;99.90;;;;;;20705027;28;21469;-40
2022/05/25 02:21:58;;;;;;;2.92;1.25;;;11.40;99.90;;;;;;20704253;28;20041;-40
2022/05/25 02:32:12;;;;;;;3.50;1.33;;;11.30;99.90;;;;;;20689087;28;20045;-40
2022/05/25 02:42:16;;;;;;;3.10;1.38;;;11.40;99.90;;;;;;20684897;28;20038;-40
2022/05/25 02:52:17;;;;;;;2.13;1.25;;;11.30;99.90;;;;;;20704635;28;20402;-40
2022/05/25 03:02:18;;;;;;;3.42;1.00;;;11.30;99.90;;;;;;20696949;28;20344;-40
2022/05/25 03:12:20;;;;;;;4.93;2.45;;;11.20;99.90;;;;;;20676398;28;20054;-40
2022/05/25 03:22:22;;;;;;;2.85;1.88;;;11.30;99.90;;;;;;20708590;28;20033;-40
2022/05/25 03:32:23;;;;;;;4.38;1.35;;;11.30;99.90;;;;;;20696269;28;20387;-40
2022/05/25 03:42:24;;;;;;;3.67;1.40;;;11.20;99.90;;;;;;20701425;28;20041;-40
2022/05/25 03:52:26;;;;;;;4.20;1.83;;;11.10;99.90;;;;;;20705162;28;20054;-39
2022/05/25 04:02:27;;;;;;;3.35;1.48;;;11.10;99.90;;;;;;20698266;28;20049;-39
2022/05/25 04:12:28;;;;;;;2.50;1.13;;;11.10;99.90;;;;;;20681827;28;20049;-40
2022/05/25 04:22:32;;;;;;;4.93;1.27;;;11.20;99.90;;;;;;20701661;28;20034;-40
2022/05/25 04:32:33;;;;;;;5.75;1.25;;;11.20;99.90;;;;;;20690160;28;20057;-40
2022/05/25 04:42:34;;;;;;;4.38;2.25;;;11.20;99.90;;;;;;20687692;28;20045;-39
2022/05/25 04:52:39;;;;;;;2.60;1.05;;;11.30;99.90;;;;;;20705604;28;20053;-40
2022/05/25 05:02:40;;;;;;;2.97;1.33;;;11.80;99.90;;;;;;20703467;28;20037;-39
2022/05/25 05:12:41;;;;;;;2.88;1.90;;;11.90;99.90;;;;;;20696656;28;20050;-40
2022/05/25 05:22:42;;;;;;;4.60;2.42;;;11.80;99.90;;;;;;20708170;28;20206;-40
2022/05/25 05:32:44;;;;;;;5.40;1.85;;;11.90;99.90;;;;;;20684698;28;20056;-39
2022/05/25 05:42:47;;;;;;;3.65;1.25;;;12.10;99.90;;;;;;20700105;28;20476;-40
2022/05/25 05:52:50;;;;;;;3.25;1.65;;;12.40;99.90;;;;;;20724309;28;20049;-39
2022/05/25 06:02:51;;;;;;;5.00;2.00;;;12.50;99.90;;;;;;20717817;28;20098;-39
2022/05/25 06:12:52;;;;;;;2.50;1.23;;;12.80;99.90;;;;;;20719654;28;20046;-40
2022/05/25 06:22:53;;;;;;;5.88;3.03;;;12.90;99.90;;;;;;20726235;28;20057;-39
2022/05/25 06:32:54;;;;;;;5.18;2.65;;;13.30;99.90;;;;;;20720003;28;20579;-39
2022/05/25 06:42:55;;;;;;;4.22;2.08;;;13.50;99.90;;;;;;20721918;28;20057;-40
2022/05/25 06:52:56;;;;;;;5.80;3.05;;;13.70;99.90;;;;;;20728191;28;20054;-40
2022/05/25 07:03:02;;;;;;;4.88;2.67;;;13.90;99.90;;;;;;20705847;28;20405;-39
2022/05/25 07:13:03;;;;;;;7.05;3.38;;;13.80;99.90;;;;;;20713953;28;20042;-39
2022/05/25 07:23:04;;;;;;;4.03;2.97;;;13.60;99.90;;;;;;20718531;28;20046;-39
2022/05/25 07:33:06;;;;;;;4.95;2.95;;;13.60;99.90;;;;;;20712060;28;20054;-39
2022/05/25 07:43:15;;;;;;;5.90;2.85;;;13.90;99.90;;;;;;20711094;28;20041;-39
2022/05/25 08:13:57;;;;;;;8.38;3.95;;;14.00;99.90;;;;;;20701544;28;20037;-40
2022/05/25 08:23:58;;;;;;;10.45;3.10;;;14.30;99.90;;;;;;20706877;28;20056;-39
2022/05/25 08:33:59;;;;;;;4.50;2.03;;;14.50;99.90;;;;;;20722981;28;20056;-39
2022/05/25 08:44:02;;;;;;;4.55;2.13;;;14.80;99.90;;;;;;20715481;28;20601;-39
2022/05/25 08:54:03;;;;;;;3.45;1.77;;;15.50;99.90;;;;;;20726431;28;20405;-39
2022/05/25 09:04:36;;;;;;;11.57;2.47;;;16.10;99.90;;;;;;20722469;28;20045;-39
2022/05/25 09:14:46;;;;;;;3.13;1.52;;;16.50;99.90;;;;;;20721989;28;20261;-39
2022/05/25 09:24:49;;;;;;;2.17;1.35;;;16.70;99.90;;;;;;20731513;28;20525;-39
2022/05/25 09:35:06;;;;;;;1.85;0.80;;;16.90;99.90;;;;;;20727847;28;20066;-39
2022/05/25 09:45:14;;;;;;;1.50;0.73;;;17.20;99.90;;;;;;20740588;28;20041;-39
2022/05/25 09:55:31;;;;;;;0.70;0.20;;;17.40;99.90;;;;;;20734205;28;20053;-39
2022/05/25 10:05:46;;;;;;;0.37;0.20;;;17.70;99.90;;;;;;20737698;28;20414;-39
2022/05/25 10:15:51;;;;;;;0.40;0.15;;;18.00;99.90;;;;;;20729070;28;20045;-40
2022/05/25 10:25:58;;;;;;;0.25;0.10;;;17.70;99.90;;;;;;20730862;28;20038;-39
2022/05/25 10:46:20;;;;;;;0.50;0.10;;;18.20;99.90;;;;;;20729190;28;21584;-39
2022/05/25 10:56:42;;;;;;;0.57;0.20;;;17.90;99.90;;;;;;20721650;28;20056;-39
2022/05/25 11:07:25;;;;;;;1.17;0.17;;;17.30;99.90;;;;;;20723887;28;20065;-39
2022/05/25 11:17:41;;;;;;;0.28;0.15;;;18.20;99.90;;;;;;20731688;28;20049;-40
2022/05/25 11:27:58;;;;;;;0.32;0.10;;;18.50;99.90;;;;;;20732617;28;20351;-40
2022/05/25 11:38:22;;;;;;;1.60;0.85;;;18.70;99.90;;;;;;20719471;28;23152;-40
2022/05/25 11:48:45;;;;;;;5.97;0.45;;;18.80;99.90;;;;;;20715215;28;20338;-40
2022/05/25 11:59:07;;;;;;;0.47;0.10;;;18.80;99.90;;;;;;20685743;28;21357;-41
2022/05/25 12:09:31;;;;;;;0.28;0.10;;;19.00;99.90;;;;;;20715300;28;20033;-41
2022/05/25 12:19:35;;;;;;;0.50;0.10;;;19.00;99.90;;;;;;20684286;28;20054;-40
2022/05/25 12:29:42;;;;;;;3.90;0.32;;;18.50;99.90;;;;;;20718912;28;20393;-40
2022/05/25 12:39:42;;;;;;;0.55;0.20;;;18.10;99.90;;;;;;20711823;28;20042;-40
2022/05/25 12:49:44;;;;;;;0.63;0.20;;;18.60;99.90;;;;;;20707942;28;20111;-40
2022/05/25 12:59:45;;;;;;;0.68;0.28;;;18.90;99.90;;;;;;20719767;28;20046;-40
2022/05/25 13:09:46;;;;;;;0.88;0.38;;;19.00;99.90;;;;;;20723888;28;20060;-40
2022/05/25 13:19:47;;;;;;;1.35;0.45;;;18.40;99.90;;;;;;20729999;28;20212;-40
2022/05/25 13:30:17;;;;;;;2.72;0.60;;;18.00;99.90;;;;;;20717993;28;20042;-40
2022/05/25 13:40:31;;;;;;;1.40;0.60;;;18.00;99.90;;;;;;20741236;28;20330;-40
2022/05/25 13:50:37;;;;;;;3.53;1.42;;;18.30;99.90;;;;;;20737000;28;20045;-40
2022/05/25 14:00:42;;;;;;;0.93;0.43;;;18.40;99.90;;;;;;20746081;28;20053;-40
2022/05/25 14:11:03;;;;;;;1.02;0.30;;;18.30;99.90;;;;;;20727854;28;20091;-40
2022/05/25 14:21:04;;;;;;;0.57;0.30;;;18.40;99.90;;;;;;20743888;28;20045;-40
2022/05/25 14:31:07;;;;;;;0.73;0.50;;;18.40;99.90;;;;;;20729608;28;20820;-40
2022/05/25 14:41:42;;;;;;;0.60;0.20;;;18.60;99.90;;;;;;20748229;28;20375;-40
2022/05/25 14:51:45;;;;;;;1.63;0.43;;;18.30;99.90;;;;;;20706945;28;20936;-40
2022/05/25 15:01:55;;;;;;;4.45;1.02;;;17.90;99.90;;;;;;20721846;28;20053;-39
2022/05/25 15:12:18;;;;;;;1.50;0.57;;;17.80;99.90;;;;;;20724733;28;20045;-40
2022/05/25 15:22:26;;;;;;;1.92;1.25;;;17.60;99.90;;;;;;20710678;28;21305;-40
2022/05/25 15:32:27;;;;;;;2.55;0.65;;;17.50;99.90;;;;;;20724083;28;20050;-40
2022/05/25 15:42:28;;;;;;;0.80;0.30;;;17.50;99.90;;;;;;20719109;28;20083;-41
2022/05/25 15:52:29;;;;;;;1.48;0.80;;;17.40;99.90;;;;;;20734554;28;20050;-41
2022/05/25 16:02:31;;;;;;;1.02;0.40;;;17.40;99.90;;;;;;20731549;28;20042;-41
2022/05/25 16:12:33;;;;;;;1.00;0.40;;;17.10;99.90;;;;;;20723142;28;20046;-43
2022/05/25 16:22:38;;;;;;;1.20;0.40;;;16.60;99.90;;;;;;20729164;28;20044;-43
2022/05/25 16:32:39;;;;;;;2.40;0.35;;;16.00;99.90;;;;;;20720669;28;20046;-43
2022/05/25 16:42:41;;;;;;;2.58;0.52;;;15.60;99.90;;;;;;20721473;28;20041;-43
2022/05/25 16:52:42;;;;;;;1.98;0.20;;;15.40;99.90;;;;;;20718972;28;20405;-40
2022/05/25 17:02:43;;;;;;;1.33;0.40;;;15.20;99.90;;;;;;20717396;28;20046;-40
2022/05/25 17:12:44;;;;;;;0.68;0.20;;;15.10;99.90;;;;;;20674090;28;20678;-40
2022/05/25 17:22:45;;;;;;;1.30;0.45;;;15.20;99.90;;;;;;20682645;28;20073;-41
2022/05/25 17:32:47;;;;;;;0.93;0.30;;;15.30;99.90;;;;;;20703544;28;20056;-41
2022/05/25 17:42:48;;;;;;;1.52;0.85;;;15.20;99.90;;;;;;20693051;28;20049;-41
2022/05/25 17:52:51;;;;;;;1.30;0.28;;;14.80;99.90;;;;;;20723070;28;20058;-40
2022/05/25 18:02:53;;;;;;;1.90;0.63;;;14.80;99.90;;;;;;20713502;28;20417;-40
2022/05/25 18:12:54;;;;;;;2.70;0.40;;;14.70;99.90;;;;;;20698445;28;20140;-41
2022/05/25 18:22:56;;;;;;;0.73;0.25;;;14.60;99.90;;;;;;20715051;28;20041;-40
2022/05/25 18:32:57;;;;;;;1.58;0.52;;;14.60;99.90;;;;;;20714774;28;20033;-40
2022/05/25 18:42:58;;;;;;;1.10;0.38;;;14.50;99.90;;;;;;20720941;28;20485;-41
2022/05/25 18:53:00;;;;;;;3.15;0.50;;;14.50;99.90;;;;;;20736722;28;20053;-41
2022/05/25 19:03:02;;;;;;;0.88;0.30;;;14.50;99.90;;;;;;20723908;28;20034;-40
2022/05/25 19:13:04;;;;;;;0.98;0.30;;;14.50;99.90;;;;;;20729759;28;20524;-41
2022/05/25 19:23:28;;;;;;;0.70;0.40;;;14.40;99.90;;;;;;20708212;28;20045;-40
2022/05/25 19:33:29;;;;;;;2.67;0.50;;;14.40;99.90;;;;;;20701069;28;21550;-40
2022/05/25 19:43:31;;;;;;;1.85;1.17;;;14.30;99.90;;;;;;20705896;28;20034;-40
2022/05/25 19:53:35;;;;;;;1.92;0.75;;;14.40;99.90;;;;;;20710000;28;20401;-40
2022/05/25 20:03:36;;;;;;;3.03;0.80;;;14.60;99.90;;;;;;20706139;28;20049;-41
2022/05/25 20:13:38;;;;;;;3.60;0.85;;;14.80;99.90;;;;;;20694344;28;20048;-40
2022/05/25 20:23:39;;;;;;;3.95;0.70;;;14.80;99.90;;;;;;20702770;28;20041;-40
2022/05/25 20:33:41;;;;;;;3.40;1.40;;;15.00;99.90;;;;;;20699872;28;20053;-40
2022/05/25 20:43:43;;;;;;;1.98;0.80;;;15.00;99.90;;;;;;20683000;28;20041;-40
2022/05/25 20:53:44;;;;;;;2.30;1.13;;;15.10;99.90;;;;;;20687791;28;20053;-40
2022/05/25 21:03:45;;;;;;;4.13;1.15;;;15.20;99.90;;;;;;20698347;28;21291;-40
2022/05/25 21:13:47;;;;;;;2.15;1.05;;;15.10;99.90;;;;;;20708681;28;20049;-41
2022/05/25 21:23:48;;;;;;;2.30;1.23;;;15.10;99.90;;;;;;20699548;28;20049;-41
2022/05/25 21:33:49;;;;;;;11.15;2.08;;;15.10;99.90;;;;;;20680136;28;20046;-41
2022/05/25 21:43:50;;;;;;;3.90;1.48;;;15.00;99.90;;;;;;20686297;28;20076;-41
2022/05/25 21:53:51;;;;;;;3.90;2.17;;;14.90;99.90;;;;;;20687327;28;20053;-41
2022/05/25 22:03:52;;;;;;;3.30;1.17;;;14.80;99.90;;;;;;20706090;28;20076;-41
2022/05/25 22:13:54;;;;;;;6.00;1.83;;;14.70;99.90;;;;;;20711613;28;20050;-41
2022/05/25 22:23:55;;;;;;;3.25;1.30;;;14.80;99.90;;;;;;20705161;28;20034;-41
2022/05/25 22:33:56;;;;;;;2.40;1.30;;;15.00;99.90;;;;;;20694876;28;20053;-41
2022/05/25 22:43:57;;;;;;;3.55;1.42;;;14.80;99.90;;;;;;20709958;28;20045;-41
2022/05/25 22:53:58;;;;;;;4.53;1.85;;;15.00;99.90;;;;;;20709617;28;20090;-41
2022/05/25 23:03:59;;;;;;;7.05;2.20;;;15.00;99.90;;;;;;20688744;28;20046;-41
2022/05/25 23:14:01;;;;;;;4.55;2.20;;;15.00;99.90;;;;;;20697325;28;20050;-41
2022/05/25 23:24:02;;;;;;;3.38;1.60;;;14.80;99.90;;;;;;20697549;28;20077;-41
2022/05/25 23:34:04;;;;;;;9.82;1.90;;;14.90;99.90;;;;;;20672891;28;20335;-41
2022/05/25 23:44:05;;;;;;;4.15;2.17;;;15.00;99.90;;;;;;20689855;28;20446;-41
2022/05/25 23:54:06;;;;;;;4.65;2.00;;;15.00;99.90;;;;;;20697982;28;20238;-41
